sensor_id;sensor_type;location;lat;lon;timestamp;P1;durP1;ratioP1;P2;durP2;ratioP2
30934;SDS011;51033;42.648;23.292;2023-12-22T00:00:04;31.10;;;19.77;;
30934;SDS011;51033;42.648;23.292;2023-12-22T00:02:30;31.38;;;20.45;;
30934;SDS011;51033;42.648;23.292;2023-12-22T00:04:56;30.60;;;19.77;;
30934;SDS011;51033;42.648;23.292;2023-12-22T00:07:21;27.23;;;18.67;;
30934;SDS011;51033;42.648;23.292;2023-12-22T00:09:46;29.63;;;18.58;;
30934;SDS011;51033;42.648;23.292;2023-12-22T00:12:12;31.10;;;18.58;;
30934;SDS011;51033;42.648;23.292;2023-12-22T00:14:41;26.75;;;17.50;;
30934;SDS011;51033;42.648;23.292;2023-12-22T00:17:09;28.75;;;19.20;;
30934;SDS011;51033;42.648;23.292;2023-12-22T00:19:35;36.67;;;23.08;;
30934;SDS011;51033;42.648;23.292;2023-12-22T00:22:00;38.03;;;22.70;;
30934;SDS011;51033;42.648;23.292;2023-12-22T00:24:28;34.65;;;22.42;;
30934;SDS011;51033;42.648;23.292;2023-12-22T00:26:53;31.42;;;20.35;;
30934;SDS011;51033;42.648;23.292;2023-12-22T00:29:18;30.55;;;20.63;;
30934;SDS011;51033;42.648;23.292;2023-12-22T00:31:44;33.53;;;21.02;;
30934;SDS011;51033;42.648;23.292;2023-12-22T00:34:09;30.23;;;20.60;;
30934;SDS011;51033;42.648;23.292;2023-12-22T00:36:34;27.45;;;17.20;;
30934;SDS011;51033;42.648;23.292;2023-12-22T00:39:00;30.88;;;18.15;;
30934;SDS011;51033;42.648;23.292;2023-12-22T00:41:25;24.67;;;17.35;;
30934;SDS011;51033;42.648;23.292;2023-12-22T00:43:51;30.60;;;18.55;;
30934;SDS011;51033;42.648;23.292;2023-12-22T00:46:17;36.40;;;21.67;;
30934;SDS011;51033;42.648;23.292;2023-12-22T00:48:42;27.33;;;18.83;;
30934;SDS011;51033;42.648;23.292;2023-12-22T00:51:07;29.35;;;17.05;;
30934;SDS011;51033;42.648;23.292;2023-12-22T00:53:33;33.97;;;20.90;;
30934;SDS011;51033;42.648;23.292;2023-12-22T00:55:59;35.25;;;21.25;;
30934;SDS011;51033;42.648;23.292;2023-12-22T00:58:25;30.48;;;20.63;;
30934;SDS011;51033;42.648;23.292;2023-12-22T01:00:51;26.08;;;18.02;;
30934;SDS011;51033;42.648;23.292;2023-12-22T01:03:16;29.75;;;19.30;;
30934;SDS011;51033;42.648;23.292;2023-12-22T01:05:41;31.42;;;18.35;;
30934;SDS011;51033;42.648;23.292;2023-12-22T01:08:07;28.98;;;18.10;;
30934;SDS011;51033;42.648;23.292;2023-12-22T01:10:32;25.40;;;17.13;;
30934;SDS011;51033;42.648;23.292;2023-12-22T01:12:57;26.70;;;15.18;;
30934;SDS011;51033;42.648;23.292;2023-12-22T01:15:23;25.05;;;16.92;;
30934;SDS011;51033;42.648;23.292;2023-12-22T01:17:48;22.45;;;14.18;;
30934;SDS011;51033;42.648;23.292;2023-12-22T01:20:14;23.35;;;14.27;;
30934;SDS011;51033;42.648;23.292;2023-12-22T01:22:39;20.45;;;15.20;;
30934;SDS011;51033;42.648;23.292;2023-12-22T01:25:05;22.77;;;14.48;;
30934;SDS011;51033;42.648;23.292;2023-12-22T01:27:31;22.00;;;13.63;;
30934;SDS011;51033;42.648;23.292;2023-12-22T01:29:56;25.05;;;16.20;;
30934;SDS011;51033;42.648;23.292;2023-12-22T01:32:22;29.83;;;19.45;;
30934;SDS011;51033;42.648;23.292;2023-12-22T01:34:47;42.25;;;20.02;;
30934;SDS011;51033;42.648;23.292;2023-12-22T01:37:13;29.85;;;17.42;;
30934;SDS011;51033;42.648;23.292;2023-12-22T01:39:39;23.05;;;16.15;;
30934;SDS011;51033;42.648;23.292;2023-12-22T01:42:04;22.67;;;15.55;;
30934;SDS011;51033;42.648;23.292;2023-12-22T01:44:30;27.55;;;15.43;;
30934;SDS011;51033;42.648;23.292;2023-12-22T01:46:55;24.70;;;14.75;;
30934;SDS011;51033;42.648;23.292;2023-12-22T01:49:22;20.55;;;14.82;;
30934;SDS011;51033;42.648;23.292;2023-12-22T01:51:50;25.08;;;14.27;;
30934;SDS011;51033;42.648;23.292;2023-12-22T01:54:16;26.95;;;15.85;;
30934;SDS011;51033;42.648;23.292;2023-12-22T01:56:41;25.95;;;15.70;;
30934;SDS011;51033;42.648;23.292;2023-12-22T01:59:08;26.55;;;17.23;;
30934;SDS011;51033;42.648;23.292;2023-12-22T02:01:33;25.25;;;16.25;;
30934;SDS011;51033;42.648;23.292;2023-12-22T02:04:00;30.30;;;19.00;;
30934;SDS011;51033;42.648;23.292;2023-12-22T02:06:26;30.17;;;18.73;;
30934;SDS011;51033;42.648;23.292;2023-12-22T02:08:51;33.35;;;20.80;;
30934;SDS011;51033;42.648;23.292;2023-12-22T02:11:18;28.02;;;19.33;;
30934;SDS011;51033;42.648;23.292;2023-12-22T02:13:44;27.90;;;18.60;;
30934;SDS011;51033;42.648;23.292;2023-12-22T02:16:11;30.10;;;18.92;;
30934;SDS011;51033;42.648;23.292;2023-12-22T02:22:04;30.73;;;17.52;;
30934;SDS011;51033;42.648;23.292;2023-12-22T02:24:31;30.08;;;17.23;;
30934;SDS011;51033;42.648;23.292;2023-12-22T02:27:00;27.02;;;17.50;;
30934;SDS011;51033;42.648;23.292;2023-12-22T02:29:37;24.50;;;16.40;;
30934;SDS011;51033;42.648;23.292;2023-12-22T02:32:07;30.55;;;17.98;;
30934;SDS011;51033;42.648;23.292;2023-12-22T02:34:38;29.40;;;17.80;;
30934;SDS011;51033;42.648;23.292;2023-12-22T02:37:08;27.88;;;18.40;;
30934;SDS011;51033;42.648;23.292;2023-12-22T02:39:35;28.80;;;19.10;;
30934;SDS011;51033;42.648;23.292;2023-12-22T02:42:01;30.42;;;20.35;;
30934;SDS011;51033;42.648;23.292;2023-12-22T02:44:28;32.00;;;18.73;;
30934;SDS011;51033;42.648;23.292;2023-12-22T02:46:54;33.28;;;20.35;;
30934;SDS011;51033;42.648;23.292;2023-12-22T02:49:19;27.65;;;17.50;;
30934;SDS011;51033;42.648;23.292;2023-12-22T02:51:44;27.38;;;17.08;;
30934;SDS011;51033;42.648;23.292;2023-12-22T02:54:10;26.27;;;17.83;;
30934;SDS011;51033;42.648;23.292;2023-12-22T02:56:36;27.83;;;17.23;;
30934;SDS011;51033;42.648;23.292;2023-12-22T02:59:01;25.23;;;16.42;;
30934;SDS011;51033;42.648;23.292;2023-12-22T03:01:27;25.80;;;16.73;;
30934;SDS011;51033;42.648;23.292;2023-12-22T03:03:52;25.70;;;16.92;;
30934;SDS011;51033;42.648;23.292;2023-12-22T03:06:17;27.10;;;16.83;;
30934;SDS011;51033;42.648;23.292;2023-12-22T03:08:43;28.95;;;17.42;;
30934;SDS011;51033;42.648;23.292;2023-12-22T03:11:08;24.92;;;17.63;;
30934;SDS011;51033;42.648;23.292;2023-12-22T03:13:33;29.55;;;17.85;;
30934;SDS011;51033;42.648;23.292;2023-12-22T03:16:00;25.63;;;17.75;;
30934;SDS011;51033;42.648;23.292;2023-12-22T03:18:26;28.27;;;16.85;;
30934;SDS011;51033;42.648;23.292;2023-12-22T03:20:51;23.88;;;16.95;;
30934;SDS011;51033;42.648;23.292;2023-12-22T03:23:17;26.08;;;16.27;;
30934;SDS011;51033;42.648;23.292;2023-12-22T03:25:42;26.48;;;18.45;;
30934;SDS011;51033;42.648;23.292;2023-12-22T03:28:07;29.45;;;17.23;;
30934;SDS011;51033;42.648;23.292;2023-12-22T03:30:33;25.85;;;16.73;;
30934;SDS011;51033;42.648;23.292;2023-12-22T03:33:00;26.42;;;17.50;;
30934;SDS011;51033;42.648;23.292;2023-12-22T03:35:26;26.15;;;16.60;;
30934;SDS011;51033;42.648;23.292;2023-12-22T03:37:54;20.98;;;14.88;;
30934;SDS011;51033;42.648;23.292;2023-12-22T03:40:19;28.10;;;17.98;;
30934;SDS011;51033;42.648;23.292;2023-12-22T03:42:45;25.67;;;16.73;;
30934;SDS011;51033;42.648;23.292;2023-12-22T03:45:11;22.92;;;17.25;;
30934;SDS011;51033;42.648;23.292;2023-12-22T03:47:36;28.52;;;17.05;;
30934;SDS011;51033;42.648;23.292;2023-12-22T03:50:01;26.02;;;16.85;;
30934;SDS011;51033;42.648;23.292;2023-12-22T03:52:27;25.17;;;17.73;;
30934;SDS011;51033;42.648;23.292;2023-12-22T03:54:52;28.35;;;16.77;;
30934;SDS011;51033;42.648;23.292;2023-12-22T03:57:17;29.80;;;16.30;;
30934;SDS011;51033;42.648;23.292;2023-12-22T03:59:43;28.35;;;16.08;;
30934;SDS011;51033;42.648;23.292;2023-12-22T04:02:08;25.75;;;16.05;;
30934;SDS011;51033;42.648;23.292;2023-12-22T04:04:37;25.67;;;17.90;;
30934;SDS011;51033;42.648;23.292;2023-12-22T04:07:03;24.02;;;15.45;;
30934;SDS011;51033;42.648;23.292;2023-12-22T04:09:28;24.98;;;16.60;;
30934;SDS011;51033;42.648;23.292;2023-12-22T04:11:54;22.70;;;16.50;;
30934;SDS011;51033;42.648;23.292;2023-12-22T04:14:19;28.10;;;18.13;;
30934;SDS011;51033;42.648;23.292;2023-12-22T04:16:44;23.80;;;16.17;;
30934;SDS011;51033;42.648;23.292;2023-12-22T04:19:10;24.05;;;15.77;;
30934;SDS011;51033;42.648;23.292;2023-12-22T04:21:36;21.92;;;16.10;;
30934;SDS011;51033;42.648;23.292;2023-12-22T04:24:01;24.27;;;15.73;;
30934;SDS011;51033;42.648;23.292;2023-12-22T04:26:27;24.85;;;15.50;;
30934;SDS011;51033;42.648;23.292;2023-12-22T04:28:53;24.98;;;16.42;;
30934;SDS011;51033;42.648;23.292;2023-12-22T04:31:18;25.75;;;16.90;;
30934;SDS011;51033;42.648;23.292;2023-12-22T04:33:43;23.80;;;15.38;;
30934;SDS011;51033;42.648;23.292;2023-12-22T04:36:09;28.48;;;17.13;;
30934;SDS011;51033;42.648;23.292;2023-12-22T04:38:35;28.38;;;17.48;;
30934;SDS011;51033;42.648;23.292;2023-12-22T04:41:00;25.52;;;16.05;;
30934;SDS011;51033;42.648;23.292;2023-12-22T04:43:25;24.73;;;16.38;;
30934;SDS011;51033;42.648;23.292;2023-12-22T04:45:51;31.02;;;17.95;;
30934;SDS011;51033;42.648;23.292;2023-12-22T04:48:16;28.13;;;19.33;;
30934;SDS011;51033;42.648;23.292;2023-12-22T04:50:42;26.80;;;16.83;;
30934;SDS011;51033;42.648;23.292;2023-12-22T04:53:07;27.20;;;17.38;;
30934;SDS011;51033;42.648;23.292;2023-12-22T04:55:32;26.38;;;16.38;;
30934;SDS011;51033;42.648;23.292;2023-12-22T04:57:58;28.38;;;16.55;;
30934;SDS011;51033;42.648;23.292;2023-12-22T05:00:23;25.50;;;15.80;;
30934;SDS011;51033;42.648;23.292;2023-12-22T05:02:50;28.17;;;18.73;;
30934;SDS011;51033;42.648;23.292;2023-12-22T05:05:15;33.42;;;19.65;;
30934;SDS011;51033;42.648;23.292;2023-12-22T05:07:41;33.85;;;19.13;;
30934;SDS011;51033;42.648;23.292;2023-12-22T05:10:06;28.85;;;19.23;;
30934;SDS011;51033;42.648;23.292;2023-12-22T05:12:32;28.38;;;19.08;;
30934;SDS011;51033;42.648;23.292;2023-12-22T05:14:57;30.42;;;19.42;;
30934;SDS011;51033;42.648;23.292;2023-12-22T05:17:23;31.65;;;19.70;;
30934;SDS011;51033;42.648;23.292;2023-12-22T05:19:48;31.33;;;18.17;;
30934;SDS011;51033;42.648;23.292;2023-12-22T05:22:13;27.88;;;17.95;;
30934;SDS011;51033;42.648;23.292;2023-12-22T05:24:39;25.15;;;17.40;;
30934;SDS011;51033;42.648;23.292;2023-12-22T05:27:04;26.10;;;18.20;;
30934;SDS011;51033;42.648;23.292;2023-12-22T05:29:30;29.73;;;17.48;;
30934;SDS011;51033;42.648;23.292;2023-12-22T05:31:55;28.15;;;17.73;;
30934;SDS011;51033;42.648;23.292;2023-12-22T05:34:20;23.33;;;16.45;;
30934;SDS011;51033;42.648;23.292;2023-12-22T05:36:46;23.80;;;16.17;;
30934;SDS011;51033;42.648;23.292;2023-12-22T05:39:11;25.85;;;16.73;;
30934;SDS011;51033;42.648;23.292;2023-12-22T05:41:36;26.58;;;16.38;;
30934;SDS011;51033;42.648;23.292;2023-12-22T05:44:03;24.95;;;15.27;;
30934;SDS011;51033;42.648;23.292;2023-12-22T05:46:30;25.20;;;15.13;;
30934;SDS011;51033;42.648;23.292;2023-12-22T05:48:56;25.52;;;14.48;;
30934;SDS011;51033;42.648;23.292;2023-12-22T05:51:24;22.48;;;14.25;;
30934;SDS011;51033;42.648;23.292;2023-12-22T05:53:51;24.85;;;15.15;;
30934;SDS011;51033;42.648;23.292;2023-12-22T05:56:21;26.38;;;15.15;;
30934;SDS011;51033;42.648;23.292;2023-12-22T05:58:47;25.50;;;16.83;;
30934;SDS011;51033;42.648;23.292;2023-12-22T06:01:15;23.75;;;14.95;;
30934;SDS011;51033;42.648;23.292;2023-12-22T06:03:41;31.02;;;18.88;;
30934;SDS011;51033;42.648;23.292;2023-12-22T06:06:07;25.83;;;17.25;;
30934;SDS011;51033;42.648;23.292;2023-12-22T06:08:32;23.42;;;16.33;;
30934;SDS011;51033;42.648;23.292;2023-12-22T06:10:57;29.58;;;18.42;;
30934;SDS011;51033;42.648;23.292;2023-12-22T06:13:23;28.02;;;18.33;;
30934;SDS011;51033;42.648;23.292;2023-12-22T06:15:49;34.50;;;20.20;;
30934;SDS011;51033;42.648;23.292;2023-12-22T06:18:15;28.30;;;17.27;;
30934;SDS011;51033;42.648;23.292;2023-12-22T06:20:41;33.10;;;20.98;;
30934;SDS011;51033;42.648;23.292;2023-12-22T06:23:06;30.73;;;19.98;;
30934;SDS011;51033;42.648;23.292;2023-12-22T06:25:32;27.40;;;17.50;;
30934;SDS011;51033;42.648;23.292;2023-12-22T06:27:57;30.98;;;17.50;;
30934;SDS011;51033;42.648;23.292;2023-12-22T06:30:22;26.35;;;15.82;;
30934;SDS011;51033;42.648;23.292;2023-12-22T06:32:48;23.48;;;15.80;;
30934;SDS011;51033;42.648;23.292;2023-12-22T06:35:14;28.17;;;16.25;;
30934;SDS011;51033;42.648;23.292;2023-12-22T06:37:39;28.45;;;15.85;;
30934;SDS011;51033;42.648;23.292;2023-12-22T06:40:05;30.27;;;19.40;;
30934;SDS011;51033;42.648;23.292;2023-12-22T06:42:31;25.77;;;16.05;;
30934;SDS011;51033;42.648;23.292;2023-12-22T06:44:56;23.65;;;17.20;;
30934;SDS011;51033;42.648;23.292;2023-12-22T06:47:21;26.27;;;15.13;;
30934;SDS011;51033;42.648;23.292;2023-12-22T06:49:47;22.35;;;15.43;;
30934;SDS011;51033;42.648;23.292;2023-12-22T06:52:12;22.17;;;16.55;;
30934;SDS011;51033;42.648;23.292;2023-12-22T06:54:37;27.30;;;16.92;;
30934;SDS011;51033;42.648;23.292;2023-12-22T06:57:03;29.45;;;16.45;;
30934;SDS011;51033;42.648;23.292;2023-12-22T06:59:29;28.17;;;17.55;;
30934;SDS011;51033;42.648;23.292;2023-12-22T07:01:54;24.40;;;15.77;;
30934;SDS011;51033;42.648;23.292;2023-12-22T07:04:20;24.90;;;14.70;;
30934;SDS011;51033;42.648;23.292;2023-12-22T07:06:46;26.27;;;17.67;;
30934;SDS011;51033;42.648;23.292;2023-12-22T07:11:46;30.23;;;19.98;;
30934;SDS011;51033;42.648;23.292;2023-12-22T07:14:13;36.95;;;21.67;;
30934;SDS011;51033;42.648;23.292;2023-12-22T07:16:38;31.88;;;19.50;;
30934;SDS011;51033;42.648;23.292;2023-12-22T07:19:04;29.55;;;17.88;;
30934;SDS011;51033;42.648;23.292;2023-12-22T07:21:30;33.70;;;18.42;;
30934;SDS011;51033;42.648;23.292;2023-12-22T07:23:56;25.92;;;17.48;;
30934;SDS011;51033;42.648;23.292;2023-12-22T07:26:21;24.65;;;17.35;;
30934;SDS011;51033;42.648;23.292;2023-12-22T07:28:50;26.75;;;17.10;;
30934;SDS011;51033;42.648;23.292;2023-12-22T07:31:15;27.80;;;19.02;;
30934;SDS011;51033;42.648;23.292;2023-12-22T07:33:41;27.45;;;16.50;;
30934;SDS011;51033;42.648;23.292;2023-12-22T07:36:06;39.22;;;23.25;;
30934;SDS011;51033;42.648;23.292;2023-12-22T07:38:33;34.60;;;22.20;;
30934;SDS011;51033;42.648;23.292;2023-12-22T07:40:58;31.45;;;19.63;;
30934;SDS011;51033;42.648;23.292;2023-12-22T07:43:24;39.65;;;23.88;;
30934;SDS011;51033;42.648;23.292;2023-12-22T07:45:50;45.90;;;29.17;;
30934;SDS011;51033;42.648;23.292;2023-12-22T07:48:16;39.67;;;26.33;;
30934;SDS011;51033;42.648;23.292;2023-12-22T07:50:42;26.90;;;18.95;;
30934;SDS011;51033;42.648;23.292;2023-12-22T07:53:07;41.33;;;24.95;;
30934;SDS011;51033;42.648;23.292;2023-12-22T07:55:33;36.20;;;22.30;;
30934;SDS011;51033;42.648;23.292;2023-12-22T07:57:59;31.02;;;20.42;;
30934;SDS011;51033;42.648;23.292;2023-12-22T08:00:24;36.85;;;21.90;;
30934;SDS011;51033;42.648;23.292;2023-12-22T08:02:50;35.58;;;21.60;;
30934;SDS011;51033;42.648;23.292;2023-12-22T08:05:17;31.67;;;19.85;;
30934;SDS011;51033;42.648;23.292;2023-12-22T08:07:43;31.77;;;19.17;;
30934;SDS011;51033;42.648;23.292;2023-12-22T08:10:09;41.35;;;21.92;;
30934;SDS011;51033;42.648;23.292;2023-12-22T08:12:35;37.72;;;20.98;;
30934;SDS011;51033;42.648;23.292;2023-12-22T08:15:00;32.80;;;20.63;;
30934;SDS011;51033;42.648;23.292;2023-12-22T08:17:27;34.60;;;22.20;;
30934;SDS011;51033;42.648;23.292;2023-12-22T08:19:52;26.52;;;18.23;;
30934;SDS011;51033;42.648;23.292;2023-12-22T08:22:18;44.53;;;28.80;;
30934;SDS011;51033;42.648;23.292;2023-12-22T08:24:43;31.73;;;19.15;;
30934;SDS011;51033;42.648;23.292;2023-12-22T08:27:09;29.13;;;17.55;;
30934;SDS011;51033;42.648;23.292;2023-12-22T08:29:34;28.75;;;18.73;;
30934;SDS011;51033;42.648;23.292;2023-12-22T08:32:00;25.50;;;18.52;;
30934;SDS011;51033;42.648;23.292;2023-12-22T08:34:26;29.23;;;18.67;;
30934;SDS011;51033;42.648;23.292;2023-12-22T08:36:52;32.45;;;16.52;;
30934;SDS011;51033;42.648;23.292;2023-12-22T08:39:17;25.90;;;17.27;;
30934;SDS011;51033;42.648;23.292;2023-12-22T08:41:43;22.08;;;16.02;;
30934;SDS011;51033;42.648;23.292;2023-12-22T08:44:09;29.60;;;18.75;;
30934;SDS011;51033;42.648;23.292;2023-12-22T08:46:35;30.90;;;19.15;;
30934;SDS011;51033;42.648;23.292;2023-12-22T08:49:00;27.65;;;17.70;;
30934;SDS011;51033;42.648;23.292;2023-12-22T08:51:26;25.58;;;17.27;;
30934;SDS011;51033;42.648;23.292;2023-12-22T08:53:55;25.80;;;16.40;;
30934;SDS011;51033;42.648;23.292;2023-12-22T08:56:21;25.17;;;16.45;;
30934;SDS011;51033;42.648;23.292;2023-12-22T08:58:47;31.52;;;18.23;;
30934;SDS011;51033;42.648;23.292;2023-12-22T09:01:16;44.90;;;25.83;;
30934;SDS011;51033;42.648;23.292;2023-12-22T09:03:41;40.67;;;26.25;;
30934;SDS011;51033;42.648;23.292;2023-12-22T09:06:11;44.67;;;26.10;;
30934;SDS011;51033;42.648;23.292;2023-12-22T09:08:39;52.95;;;28.98;;
30934;SDS011;51033;42.648;23.292;2023-12-22T09:11:05;56.30;;;35.05;;
30934;SDS011;51033;42.648;23.292;2023-12-22T09:13:30;55.08;;;33.58;;
30934;SDS011;51033;42.648;23.292;2023-12-22T09:15:56;49.65;;;29.98;;
30934;SDS011;51033;42.648;23.292;2023-12-22T09:18:23;40.42;;;27.52;;
30934;SDS011;51033;42.648;23.292;2023-12-22T09:20:48;35.78;;;21.83;;
30934;SDS011;51033;42.648;23.292;2023-12-22T09:23:15;31.15;;;19.15;;
30934;SDS011;51033;42.648;23.292;2023-12-22T09:25:43;32.70;;;21.15;;
30934;SDS011;51033;42.648;23.292;2023-12-22T09:28:08;29.30;;;19.05;;
30934;SDS011;51033;42.648;23.292;2023-12-22T09:30:35;40.22;;;21.90;;
30934;SDS011;51033;42.648;23.292;2023-12-22T09:33:00;35.92;;;21.65;;
30934;SDS011;51033;42.648;23.292;2023-12-22T09:35:26;33.78;;;20.13;;
30934;SDS011;51033;42.648;23.292;2023-12-22T09:37:53;27.27;;;19.67;;
30934;SDS011;51033;42.648;23.292;2023-12-22T09:40:18;29.52;;;18.42;;
30934;SDS011;51033;42.648;23.292;2023-12-22T09:42:44;30.42;;;19.90;;
30934;SDS011;51033;42.648;23.292;2023-12-22T09:45:12;27.75;;;18.67;;
30934;SDS011;51033;42.648;23.292;2023-12-22T09:47:41;27.00;;;18.13;;
30934;SDS011;51033;42.648;23.292;2023-12-22T09:50:09;30.60;;;20.75;;
30934;SDS011;51033;42.648;23.292;2023-12-22T09:52:34;31.58;;;20.25;;
30934;SDS011;51033;42.648;23.292;2023-12-22T09:55:01;28.50;;;18.88;;
30934;SDS011;51033;42.648;23.292;2023-12-22T09:57:28;26.85;;;18.42;;
30934;SDS011;51033;42.648;23.292;2023-12-22T09:59:56;23.48;;;17.67;;
30934;SDS011;51033;42.648;23.292;2023-12-22T10:02:27;32.47;;;22.13;;
30934;SDS011;51033;42.648;23.292;2023-12-22T10:04:54;36.75;;;21.90;;
30934;SDS011;51033;42.648;23.292;2023-12-22T10:07:20;43.00;;;19.17;;
30934;SDS011;51033;42.648;23.292;2023-12-22T10:09:46;35.25;;;21.70;;
30934;SDS011;51033;42.648;23.292;2023-12-22T10:12:13;32.97;;;20.38;;
30934;SDS011;51033;42.648;23.292;2023-12-22T10:14:39;35.88;;;21.58;;
30934;SDS011;51033;42.648;23.292;2023-12-22T10:17:05;30.02;;;18.67;;
30934;SDS011;51033;42.648;23.292;2023-12-22T10:19:31;34.08;;;19.25;;
30934;SDS011;51033;42.648;23.292;2023-12-22T10:21:56;40.83;;;21.02;;
30934;SDS011;51033;42.648;23.292;2023-12-22T10:24:43;30.55;;;19.63;;
30934;SDS011;51033;42.648;23.292;2023-12-22T10:27:08;29.45;;;18.25;;
30934;SDS011;51033;42.648;23.292;2023-12-22T10:29:37;26.05;;;17.38;;
30934;SDS011;51033;42.648;23.292;2023-12-22T10:32:03;32.58;;;17.60;;
30934;SDS011;51033;42.648;23.292;2023-12-22T10:34:30;29.75;;;19.33;;
30934;SDS011;51033;42.648;23.292;2023-12-22T10:36:56;34.92;;;20.65;;
30934;SDS011;51033;42.648;23.292;2023-12-22T10:39:26;38.53;;;19.85;;
30934;SDS011;51033;42.648;23.292;2023-12-22T10:41:53;30.48;;;18.95;;
30934;SDS011;51033;42.648;23.292;2023-12-22T10:44:19;45.40;;;23.02;;
30934;SDS011;51033;42.648;23.292;2023-12-22T10:46:44;33.28;;;20.55;;
30934;SDS011;51033;42.648;23.292;2023-12-22T10:49:12;42.38;;;21.90;;
30934;SDS011;51033;42.648;23.292;2023-12-22T10:51:38;33.83;;;22.85;;
30934;SDS011;51033;42.648;23.292;2023-12-22T10:54:04;42.05;;;26.55;;
30934;SDS011;51033;42.648;23.292;2023-12-22T10:56:31;39.90;;;23.90;;
30934;SDS011;51033;42.648;23.292;2023-12-22T10:58:56;33.15;;;19.58;;
30934;SDS011;51033;42.648;23.292;2023-12-22T11:01:23;11.82;;;8.23;;
30934;SDS011;51033;42.648;23.292;2023-12-22T11:03:54;3.10;;;2.67;;
30934;SDS011;51033;42.648;23.292;2023-12-22T11:06:26;1.50;;;1.40;;
30934;SDS011;51033;42.648;23.292;2023-12-22T11:08:53;1.67;;;1.45;;
30934;SDS011;51033;42.648;23.292;2023-12-22T11:11:30;3.38;;;2.42;;
30934;SDS011;51033;42.648;23.292;2023-12-22T11:13:57;3.95;;;2.92;;
30934;SDS011;51033;42.648;23.292;2023-12-22T11:16:25;4.63;;;2.30;;
30934;SDS011;51033;42.648;23.292;2023-12-22T11:18:53;2.78;;;2.50;;
30934;SDS011;51033;42.648;23.292;2023-12-22T11:21:22;4.57;;;2.60;;
30934;SDS011;51033;42.648;23.292;2023-12-22T11:23:49;3.83;;;3.25;;
30934;SDS011;51033;42.648;23.292;2023-12-22T11:26:19;4.18;;;3.17;;
30934;SDS011;51033;42.648;23.292;2023-12-22T11:28:46;3.20;;;2.72;;
30934;SDS011;51033;42.648;23.292;2023-12-22T11:31:12;5.82;;;3.78;;
30934;SDS011;51033;42.648;23.292;2023-12-22T11:33:40;4.10;;;1.70;;
30934;SDS011;51033;42.648;23.292;2023-12-22T11:36:12;6.30;;;3.92;;
30934;SDS011;51033;42.648;23.292;2023-12-22T11:38:39;3.65;;;2.30;;
30934;SDS011;51033;42.648;23.292;2023-12-22T11:41:10;4.97;;;3.20;;
30934;SDS011;51033;42.648;23.292;2023-12-22T11:43:38;4.07;;;2.47;;
30934;SDS011;51033;42.648;23.292;2023-12-22T11:46:05;1.92;;;1.73;;
30934;SDS011;51033;42.648;23.292;2023-12-22T11:48:30;4.20;;;2.92;;
30934;SDS011;51033;42.648;23.292;2023-12-22T11:50:56;4.25;;;3.28;;
30934;SDS011;51033;42.648;23.292;2023-12-22T11:53:22;1.35;;;1.25;;
30934;SDS011;51033;42.648;23.292;2023-12-22T11:55:56;3.28;;;2.63;;
30934;SDS011;51033;42.648;23.292;2023-12-22T12:01:23;22.67;;;12.38;;
30934;SDS011;51033;42.648;23.292;2023-12-22T12:08:57;4.95;;;4.18;;
30934;SDS011;51033;42.648;23.292;2023-12-22T12:11:23;5.97;;;4.65;;
30934;SDS011;51033;42.648;23.292;2023-12-22T12:16:36;3.53;;;2.75;;
30934;SDS011;51033;42.648;23.292;2023-12-22T12:19:07;3.25;;;2.40;;
30934;SDS011;51033;42.648;23.292;2023-12-22T12:21:33;3.35;;;1.90;;
30934;SDS011;51033;42.648;23.292;2023-12-22T12:23:59;4.65;;;2.38;;
30934;SDS011;51033;42.648;23.292;2023-12-22T12:26:24;3.47;;;2.28;;
30934;SDS011;51033;42.648;23.292;2023-12-22T12:28:50;4.93;;;2.50;;
30934;SDS011;51033;42.648;23.292;2023-12-22T12:31:16;8.00;;;4.15;;
30934;SDS011;51033;42.648;23.292;2023-12-22T12:33:41;4.70;;;2.45;;
30934;SDS011;51033;42.648;23.292;2023-12-22T12:36:08;8.30;;;5.53;;
30934;SDS011;51033;42.648;23.292;2023-12-22T12:38:43;5.95;;;2.75;;
30934;SDS011;51033;42.648;23.292;2023-12-22T12:41:30;7.80;;;3.45;;
30934;SDS011;51033;42.648;23.292;2023-12-22T12:43:59;6.03;;;3.13;;
30934;SDS011;51033;42.648;23.292;2023-12-22T12:46:34;3.65;;;2.53;;
30934;SDS011;51033;42.648;23.292;2023-12-22T12:49:06;4.03;;;2.40;;
30934;SDS011;51033;42.648;23.292;2023-12-22T12:51:39;8.68;;;5.72;;
30934;SDS011;51033;42.648;23.292;2023-12-22T12:54:09;6.70;;;4.38;;
30934;SDS011;51033;42.648;23.292;2023-12-22T12:56:37;2.38;;;2.10;;
30934;SDS011;51033;42.648;23.292;2023-12-22T12:59:06;2.30;;;1.85;;
30934;SDS011;51033;42.648;23.292;2023-12-22T13:01:33;4.85;;;3.92;;
30934;SDS011;51033;42.648;23.292;2023-12-22T13:04:03;2.55;;;1.92;;
30934;SDS011;51033;42.648;23.292;2023-12-22T13:06:28;4.22;;;2.75;;
30934;SDS011;51033;42.648;23.292;2023-12-22T13:08:54;2.38;;;2.17;;
30934;SDS011;51033;42.648;23.292;2023-12-22T13:11:20;6.22;;;3.80;;
30934;SDS011;51033;42.648;23.292;2023-12-22T13:13:46;7.78;;;4.15;;
30934;SDS011;51033;42.648;23.292;2023-12-22T13:16:12;8.13;;;4.70;;
30934;SDS011;51033;42.648;23.292;2023-12-22T13:18:37;10.35;;;5.90;;
30934;SDS011;51033;42.648;23.292;2023-12-22T13:21:03;8.30;;;5.43;;
30934;SDS011;51033;42.648;23.292;2023-12-22T13:23:29;2.97;;;1.98;;
30934;SDS011;51033;42.648;23.292;2023-12-22T13:25:55;12.10;;;7.07;;
30934;SDS011;51033;42.648;23.292;2023-12-22T13:28:26;2.90;;;1.70;;
30934;SDS011;51033;42.648;23.292;2023-12-22T13:30:53;18.40;;;10.75;;
30934;SDS011;51033;42.648;23.292;2023-12-22T13:33:18;8.68;;;4.90;;
30934;SDS011;51033;42.648;23.292;2023-12-22T13:35:44;8.13;;;5.35;;
30934;SDS011;51033;42.648;23.292;2023-12-22T13:38:11;10.40;;;6.28;;
30934;SDS011;51033;42.648;23.292;2023-12-22T13:40:38;10.02;;;6.05;;
30934;SDS011;51033;42.648;23.292;2023-12-22T13:43:04;7.75;;;5.32;;
30934;SDS011;51033;42.648;23.292;2023-12-22T13:45:30;11.40;;;6.00;;
30934;SDS011;51033;42.648;23.292;2023-12-22T13:47:57;9.07;;;6.47;;
30934;SDS011;51033;42.648;23.292;2023-12-22T13:50:23;8.07;;;5.05;;
30934;SDS011;51033;42.648;23.292;2023-12-22T13:52:49;7.30;;;5.03;;
30934;SDS011;51033;42.648;23.292;2023-12-22T13:55:16;9.52;;;5.43;;
30934;SDS011;51033;42.648;23.292;2023-12-22T13:57:42;4.03;;;2.72;;
30934;SDS011;51033;42.648;23.292;2023-12-22T14:02:43;5.15;;;3.30;;
30934;SDS011;51033;42.648;23.292;2023-12-22T14:05:09;5.32;;;3.78;;
30934;SDS011;51033;42.648;23.292;2023-12-22T14:07:35;4.10;;;2.70;;
30934;SDS011;51033;42.648;23.292;2023-12-22T14:10:06;4.78;;;3.95;;
30934;SDS011;51033;42.648;23.292;2023-12-22T14:12:33;4.00;;;2.70;;
30934;SDS011;51033;42.648;23.292;2023-12-22T14:14:59;4.30;;;2.80;;
30934;SDS011;51033;42.648;23.292;2023-12-22T14:17:24;5.78;;;3.35;;
30934;SDS011;51033;42.648;23.292;2023-12-22T14:19:50;2.45;;;1.70;;
30934;SDS011;51033;42.648;23.292;2023-12-22T14:22:15;2.95;;;1.88;;
30934;SDS011;51033;42.648;23.292;2023-12-22T14:24:42;2.60;;;1.92;;
30934;SDS011;51033;42.648;23.292;2023-12-22T14:27:10;3.17;;;1.95;;